sensor_id;sensor_type;location;lat;lon;timestamp;temperature;humidity
31837;DHT22;18401;49.344;6.240;2023-01-01T00:00:45;12.40;99.90
31837;DHT22;18401;49.344;6.240;2023-01-01T00:03:13;12.40;99.90
31837;DHT22;18401;49.344;6.240;2023-01-01T00:05:39;12.30;99.90
31837;DHT22;18401;49.344;6.240;2023-01-01T00:08:05;12.40;99.90
31837;DHT22;18401;49.344;6.240;2023-01-01T00:10:31;12.40;99.90
31837;DHT22;18401;49.344;6.240;2023-01-01T00:12:58;12.40;99.90
31837;DHT22;18401;49.344;6.240;2023-01-01T00:15:25;12.30;99.90
31837;DHT22;18401;49.344;6.240;2023-01-01T00:17:51;12.30;99.90
31837;DHT22;18401;49.344;6.240;2023-01-01T00:20:17;12.40;99.90
31837;DHT22;18401;49.344;6.240;2023-01-01T00:22:42;12.50;99.90
31837;DHT22;18401;49.344;6.240;2023-01-01T00:25:10;12.40;99.90
31837;DHT22;18401;49.344;6.240;2023-01-01T00:27:38;12.40;99.90
31837;DHT22;18401;49.344;6.240;2023-01-01T00:30:04;12.40;99.90
31837;DHT22;18401;49.344;6.240;2023-01-01T00:32:31;12.50;99.90
31837;DHT22;18401;49.344;6.240;2023-01-01T00:34:57;12.40;99.90
31837;DHT22;18401;49.344;6.240;2023-01-01T00:37:23;12.50;99.90
31837;DHT22;18401;49.344;6.240;2023-01-01T00:39:49;12.50;99.90
31837;DHT22;18401;49.344;6.240;2023-01-01T00:42:14;12.60;99.90
31837;DHT22;18401;49.344;6.240;2023-01-01T00:44:40;12.60;99.90
31837;DHT22;18401;49.344;6.240;2023-01-01T00:47:06;12.60;99.90
31837;DHT22;18401;49.344;6.240;2023-01-01T00:49:31;12.60;99.90
31837;DHT22;18401;49.344;6.240;2023-01-01T00:51:57;12.60;99.90
31837;DHT22;18401;49.344;6.240;2023-01-01T00:54:23;12.60;99.90
31837;DHT22;18401;49.344;6.240;2023-01-01T00:56:48;12.50;99.90
31837;DHT22;18401;49.344;6.240;2023-01-01T00:59:14;12.60;99.90
31837;DHT22;18401;49.344;6.240;2023-01-01T01:01:40;12.60;99.90
31837;DHT22;18401;49.344;6.240;2023-01-01T01:04:06;12.60;99.90
31837;DHT22;18401;49.344;6.240;2023-01-01T01:06:33;12.60;99.90
31837;DHT22;18401;49.344;6.240;2023-01-01T01:08:59;12.80;99.90
31837;DHT22;18401;49.344;6.240;2023-01-01T01:11:25;12.70;99.90
31837;DHT22;18401;49.344;6.240;2023-01-01T01:13:53;12.60;99.90
31837;DHT22;18401;49.344;6.240;2023-01-01T01:16:28;12.60;99.90
31837;DHT22;18401;49.344;6.240;2023-01-01T01:18:56;12.70;99.90
31837;DHT22;18401;49.344;6.240;2023-01-01T01:21:25;12.60;99.90
31837;DHT22;18401;49.344;6.240;2023-01-01T01:23:52;12.50;99.90
31837;DHT22;18401;49.344;6.240;2023-01-01T01:26:23;12.50;99.90
31837;DHT22;18401;49.344;6.240;2023-01-01T01:28:50;12.40;99.90
31837;DHT22;18401;49.344;6.240;2023-01-01T01:31:16;12.30;99.90
31837;DHT22;18401;49.344;6.240;2023-01-01T01:33:43;12.30;99.90
31837;DHT22;18401;49.344;6.240;2023-01-01T01:36:09;12.30;99.90
31837;DHT22;18401;49.344;6.240;2023-01-01T01:38:34;12.30;99.90
31837;DHT22;18401;49.344;6.240;2023-01-01T01:41:00;12.40;99.90
31837;DHT22;18401;49.344;6.240;2023-01-01T01:46:02;12.30;99.90
31837;DHT22;18401;49.344;6.240;2023-01-01T01:48:36;12.40;99.90
31837;DHT22;18401;49.344;6.240;2023-01-01T01:51:03;12.40;99.90
31837;DHT22;18401;49.344;6.240;2023-01-01T01:53:31;12.30;99.90
31837;DHT22;18401;49.344;6.240;2023-01-01T01:56:06;12.30;99.90
31837;DHT22;18401;49.344;6.240;2023-01-01T01:58:33;12.30;99.90
31837;DHT22;18401;49.344;6.240;2023-01-01T02:00:59;12.40;99.90
31837;DHT22;18401;49.344;6.240;2023-01-01T02:03:46;12.40;99.90
31837;DHT22;18401;49.344;6.240;2023-01-01T02:06:13;12.30;99.90
31837;DHT22;18401;49.344;6.240;2023-01-01T02:08:39;12.30;99.90
31837;DHT22;18401;49.344;6.240;2023-01-01T02:11:05;12.20;99.90
31837;DHT22;18401;49.344;6.240;2023-01-01T02:13:31;12.30;99.90
31837;DHT22;18401;49.344;6.240;2023-01-01T02:18:58;12.40;99.90
31837;DHT22;18401;49.344;6.240;2023-01-01T02:21:34;12.40;99.90
31837;DHT22;18401;49.344;6.240;2023-01-01T02:27:14;12.30;99.90
31837;DHT22;18401;49.344;6.240;2023-01-01T02:29:45;12.30;99.90
31837;DHT22;18401;49.344;6.240;2023-01-01T02:33:08;12.30;99.90
31837;DHT22;18401;49.344;6.240;2023-01-01T02:35:15;12.30;99.90
31837;DHT22;18401;49.344;6.240;2023-01-01T02:40:39;12.20;99.90
31837;DHT22;18401;49.344;6.240;2023-01-01T02:43:06;12.20;99.90
31837;DHT22;18401;49.344;6.240;2023-01-01T02:45:32;12.20;99.90
31837;DHT22;18401;49.344;6.240;2023-01-01T02:48:02;12.20;99.90
31837;DHT22;18401;49.344;6.240;2023-01-01T02:50:28;12.20;99.90
31837;DHT22;18401;49.344;6.240;2023-01-01T02:53:08;12.20;99.90
31837;DHT22;18401;49.344;6.240;2023-01-01T02:55:38;12.20;99.90
31837;DHT22;18401;49.344;6.240;2023-01-01T03:06:48;12.20;99.90
31837;DHT22;18401;49.344;6.240;2023-01-01T03:12:37;12.30;99.90
31837;DHT22;18401;49.344;6.240;2023-01-01T03:15:50;12.40;99.90
31837;DHT22;18401;49.344;6.240;2023-01-01T03:18:04;12.40;99.90
31837;DHT22;18401;49.344;6.240;2023-01-01T03:20:33;12.30;99.90
31837;DHT22;18401;49.344;6.240;2023-01-01T03:23:09;12.30;99.90
31837;DHT22;18401;49.344;6.240;2023-01-01T03:25:41;12.20;99.90
31837;DHT22;18401;49.344;6.240;2023-01-01T03:28:12;12.10;99.90
31837;DHT22;18401;49.344;6.240;2023-01-01T03:30:40;12.10;99.90
31837;DHT22;18401;49.344;6.240;2023-01-01T03:36:13;12.20;99.90
31837;DHT22;18401;49.344;6.240;2023-01-01T03:38:50;12.30;99.90
31837;DHT22;18401;49.344;6.240;2023-01-01T03:44:59;12.20;99.90
31837;DHT22;18401;49.344;6.240;2023-01-01T03:47:16;12.30;99.90
31837;DHT22;18401;49.344;6.240;2023-01-01T03:49:42;12.20;99.90
31837;DHT22;18401;49.344;6.240;2023-01-01T03:52:20;12.10;99.90
31837;DHT22;18401;49.344;6.240;2023-01-01T04:00:27;12.00;99.90
31837;DHT22;18401;49.344;6.240;2023-01-01T04:03:03;12.10;99.90
31837;DHT22;18401;49.344;6.240;2023-01-01T04:05:32;12.10;99.90
31837;DHT22;18401;49.344;6.240;2023-01-01T04:08:01;12.20;99.90
31837;DHT22;18401;49.344;6.240;2023-01-01T04:10:30;12.30;99.90
31837;DHT22;18401;49.344;6.240;2023-01-01T04:12:57;12.30;99.90
31837;DHT22;18401;49.344;6.240;2023-01-01T04:15:25;12.30;99.90
31837;DHT22;18401;49.344;6.240;2023-01-01T04:17:52;12.40;99.90
31837;DHT22;18401;49.344;6.240;2023-01-01T04:20:19;12.30;99.90
31837;DHT22;18401;49.344;6.240;2023-01-01T04:22:45;12.40;99.90
31837;DHT22;18401;49.344;6.240;2023-01-01T04:25:12;12.40;99.90
31837;DHT22;18401;49.344;6.240;2023-01-01T04:27:39;12.40;99.90
31837;DHT22;18401;49.344;6.240;2023-01-01T04:30:06;12.50;99.90
31837;DHT22;18401;49.344;6.240;2023-01-01T04:32:32;12.30;99.90
31837;DHT22;18401;49.344;6.240;2023-01-01T04:34:58;12.20;99.90
31837;DHT22;18401;49.344;6.240;2023-01-01T04:37:25;12.40;99.90
31837;DHT22;18401;49.344;6.240;2023-01-01T04:39:50;12.30;99.90
31837;DHT22;18401;49.344;6.240;2023-01-01T04:42:16;12.40;99.90
31837;DHT22;18401;49.344;6.240;2023-01-01T04:44:42;12.40;99.90
31837;DHT22;18401;49.344;6.240;2023-01-01T04:47:08;12.40;99.90
31837;DHT22;18401;49.344;6.240;2023-01-01T04:49:34;12.40;99.90
31837;DHT22;18401;49.344;6.240;2023-01-01T04:51:59;12.40;99.90
31837;DHT22;18401;49.344;6.240;2023-01-01T04:54:25;12.40;99.90
31837;DHT22;18401;49.344;6.240;2023-01-01T04:56:51;12.30;99.90
31837;DHT22;18401;49.344;6.240;2023-01-01T04:59:16;12.40;99.90
31837;DHT22;18401;49.344;6.240;2023-01-01T05:01:42;12.50;99.90
31837;DHT22;18401;49.344;6.240;2023-01-01T05:04:11;12.60;99.90
31837;DHT22;18401;49.344;6.240;2023-01-01T05:06:37;12.50;99.90
31837;DHT22;18401;49.344;6.240;2023-01-01T05:09:03;12.60;99.90
31837;DHT22;18401;49.344;6.240;2023-01-01T05:11:29;12.60;99.90
31837;DHT22;18401;49.344;6.240;2023-01-01T05:13:58;12.60;99.90
31837;DHT22;18401;49.344;6.240;2023-01-01T05:16:26;12.50;99.90
31837;DHT22;18401;49.344;6.240;2023-01-01T05:18:52;12.50;99.90
31837;DHT22;18401;49.344;6.240;2023-01-01T05:21:20;12.50;99.90
31837;DHT22;18401;49.344;6.240;2023-01-01T05:23:46;12.60;99.90
31837;DHT22;18401;49.344;6.240;2023-01-01T05:26:20;12.60;99.90
31837;DHT22;18401;49.344;6.240;2023-01-01T05:28:47;12.80;99.90
31837;DHT22;18401;49.344;6.240;2023-01-01T05:31:15;12.80;99.90
31837;DHT22;18401;49.344;6.240;2023-01-01T05:33:41;12.70;99.90
31837;DHT22;18401;49.344;6.240;2023-01-01T05:36:31;12.70;99.90
31837;DHT22;18401;49.344;6.240;2023-01-01T05:38:55;12.70;99.90
31837;DHT22;18401;49.344;6.240;2023-01-01T05:41:22;12.70;99.90
31837;DHT22;18401;49.344;6.240;2023-01-01T05:43:48;12.60;99.90
31837;DHT22;18401;49.344;6.240;2023-01-01T05:46:18;12.50;99.90
31837;DHT22;18401;49.344;6.240;2023-01-01T05:48:44;12.50;99.90
31837;DHT22;18401;49.344;6.240;2023-01-01T05:51:19;12.60;99.90
31837;DHT22;18401;49.344;6.240;2023-01-01T05:53:45;12.50;99.90
31837;DHT22;18401;49.344;6.240;2023-01-01T05:56:11;12.50;99.90
31837;DHT22;18401;49.344;6.240;2023-01-01T05:58:37;12.40;99.90
31837;DHT22;18401;49.344;6.240;2023-01-01T06:03:40;12.20;99.90
31837;DHT22;18401;49.344;6.240;2023-01-01T06:06:09;12.30;99.90
31837;DHT22;18401;49.344;6.240;2023-01-01T06:08:35;12.30;99.90
31837;DHT22;18401;49.344;6.240;2023-01-01T06:11:02;12.40;99.90
31837;DHT22;18401;49.344;6.240;2023-01-01T06:13:29;12.30;99.90
31837;DHT22;18401;49.344;6.240;2023-01-01T06:15:56;12.20;99.90
31837;DHT22;18401;49.344;6.240;2023-01-01T06:18:23;12.30;99.90
31837;DHT22;18401;49.344;6.240;2023-01-01T06:20:49;12.20;99.90
31837;DHT22;18401;49.344;6.240;2023-01-01T06:23:15;12.40;99.90
31837;DHT22;18401;49.344;6.240;2023-01-01T06:25:40;12.40;99.90
31837;DHT22;18401;49.344;6.240;2023-01-01T06:28:06;12.40;99.90
31837;DHT22;18401;49.344;6.240;2023-01-01T06:30:32;12.50;99.90
31837;DHT22;18401;49.344;6.240;2023-01-01T06:32:59;12.40;99.90
31837;DHT22;18401;49.344;6.240;2023-01-01T06:35:25;12.40;99.90
31837;DHT22;18401;49.344;6.240;2023-01-01T06:37:51;12.30;99.90
31837;DHT22;18401;49.344;6.240;2023-01-01T06:40:16;12.30;99.90
31837;DHT22;18401;49.344;6.240;2023-01-01T06:42:42;12.40;99.90
31837;DHT22;18401;49.344;6.240;2023-01-01T06:45:08;12.40;99.90
31837;DHT22;18401;49.344;6.240;2023-01-01T06:47:34;12.50;99.90
31837;DHT22;18401;49.344;6.240;2023-01-01T06:50:01;12.50;99.90
31837;DHT22;18401;49.344;6.240;2023-01-01T06:52:27;12.50;99.90
31837;DHT22;18401;49.344;6.240;2023-01-01T06:54:52;12.60;99.90
31837;DHT22;18401;49.344;6.240;2023-01-01T06:57:18;12.70;99.90
31837;DHT22;18401;49.344;6.240;2023-01-01T06:59:44;12.60;99.90
31837;DHT22;18401;49.344;6.240;2023-01-01T07:02:10;12.70;99.90
31837;DHT22;18401;49.344;6.240;2023-01-01T07:04:36;12.70;99.90
31837;DHT22;18401;49.344;6.240;2023-01-01T07:07:02;12.60;99.90
31837;DHT22;18401;49.344;6.240;2023-01-01T07:09:28;12.50;99.90
31837;DHT22;18401;49.344;6.240;2023-01-01T07:11:54;12.50;99.90
31837;DHT22;18401;49.344;6.240;2023-01-01T07:14:19;12.50;99.90
31837;DHT22;18401;49.344;6.240;2023-01-01T07:16:45;12.50;99.90
31837;DHT22;18401;49.344;6.240;2023-01-01T07:19:11;12.50;99.90
31837;DHT22;18401;49.344;6.240;2023-01-01T07:21:42;12.40;99.90
31837;DHT22;18401;49.344;6.240;2023-01-01T07:24:11;12.50;99.90
31837;DHT22;18401;49.344;6.240;2023-01-01T07:26:37;12.50;99.90
31837;DHT22;18401;49.344;6.240;2023-01-01T07:29:04;12.60;99.90
31837;DHT22;18401;49.344;6.240;2023-01-01T07:31:30;12.60;99.90
31837;DHT22;18401;49.344;6.240;2023-01-01T07:33:56;12.60;99.90
31837;DHT22;18401;49.344;6.240;2023-01-01T07:36:21;12.50;99.90
31837;DHT22;18401;49.344;6.240;2023-01-01T07:38:47;12.50;99.90
31837;DHT22;18401;49.344;6.240;2023-01-01T07:41:13;12.50;99.90
31837;DHT22;18401;49.344;6.240;2023-01-01T07:43:38;12.50;99.90
31837;DHT22;18401;49.344;6.240;2023-01-01T07:46:04;12.50;99.90
31837;DHT22;18401;49.344;6.240;2023-01-01T07:48:30;12.50;99.90
31837;DHT22;18401;49.344;6.240;2023-01-01T07:50:56;12.50;99.90
31837;DHT22;18401;49.344;6.240;2023-01-01T07:53:21;12.50;99.90
31837;DHT22;18401;49.344;6.240;2023-01-01T07:55:47;12.50;99.90
31837;DHT22;18401;49.344;6.240;2023-01-01T07:58:13;12.50;99.90
31837;DHT22;18401;49.344;6.240;2023-01-01T08:00:38;12.50;99.90
31837;DHT22;18401;49.344;6.240;2023-01-01T08:03:04;12.60;99.90
31837;DHT22;18401;49.344;6.240;2023-01-01T08:05:31;12.60;99.90
31837;DHT22;18401;49.344;6.240;2023-01-01T08:07:59;12.50;99.90
31837;DHT22;18401;49.344;6.240;2023-01-01T08:10:24;12.60;99.90
31837;DHT22;18401;49.344;6.240;2023-01-01T08:12:50;12.60;99.90
31837;DHT22;18401;49.344;6.240;2023-01-01T08:15:16;12.70;99.90
31837;DHT22;18401;49.344;6.240;2023-01-01T08:17:42;12.80;99.90
31837;DHT22;18401;49.344;6.240;2023-01-01T08:20:08;12.80;99.90
31837;DHT22;18401;49.344;6.240;2023-01-01T08:22:34;12.80;99.90
31837;DHT22;18401;49.344;6.240;2023-01-01T08:24:59;12.70;99.90
31837;DHT22;18401;49.344;6.240;2023-01-01T08:27:25;12.70;99.90
31837;DHT22;18401;49.344;6.240;2023-01-01T08:29:51;12.70;99.90
31837;DHT22;18401;49.344;6.240;2023-01-01T08:32:17;12.70;99.90
31837;DHT22;18401;49.344;6.240;2023-01-01T08:34:42;12.70;99.90
31837;DHT22;18401;49.344;6.240;2023-01-01T08:37:14;12.80;99.90
31837;DHT22;18401;49.344;6.240;2023-01-01T08:39:40;12.80;99.90
31837;DHT22;18401;49.344;6.240;2023-01-01T08:42:06;12.80;99.90
31837;DHT22;18401;49.344;6.240;2023-01-01T08:44:32;12.90;99.90
31837;DHT22;18401;49.344;6.240;2023-01-01T08:46:57;12.90;99.90
31837;DHT22;18401;49.344;6.240;2023-01-01T08:49:23;12.90;99.90
31837;DHT22;18401;49.344;6.240;2023-01-01T08:51:49;13.00;99.90
31837;DHT22;18401;49.344;6.240;2023-01-01T08:54:14;13.10;99.90
31837;DHT22;18401;49.344;6.240;2023-01-01T08:56:40;13.10;99.90
31837;DHT22;18401;49.344;6.240;2023-01-01T08:59:05;13.10;99.90
31837;DHT22;18401;49.344;6.240;2023-01-01T09:01:31;13.20;99.90
31837;DHT22;18401;49.344;6.240;2023-01-01T09:03:57;13.20;99.90
31837;DHT22;18401;49.344;6.240;2023-01-01T09:06:22;13.20;99.90
31837;DHT22;18401;49.344;6.240;2023-01-01T09:08:48;13.40;99.90
31837;DHT22;18401;49.344;6.240;2023-01-01T09:11:24;13.40;99.90
31837;DHT22;18401;49.344;6.240;2023-01-01T09:13:50;13.40;99.90
31837;DHT22;18401;49.344;6.240;2023-01-01T09:16:16;13.50;99.90
31837;DHT22;18401;49.344;6.240;2023-01-01T09:18:42;13.50;99.90
31837;DHT22;18401;49.344;6.240;2023-01-01T09:21:07;13.50;99.90
31837;DHT22;18401;49.344;6.240;2023-01-01T09:23:34;13.60;99.90
31837;DHT22;18401;49.344;6.240;2023-01-01T09:26:07;13.60;99.90
31837;DHT22;18401;49.344;6.240;2023-01-01T09:28:33;13.60;99.90
31837;DHT22;18401;49.344;6.240;2023-01-01T09:31:00;13.60;99.90
31837;DHT22;18401;49.344;6.240;2023-01-01T09:33:26;13.60;99.90
31837;DHT22;18401;49.344;6.240;2023-01-01T09:35:52;13.70;99.90
31837;DHT22;18401;49.344;6.240;2023-01-01T09:38:18;13.80;99.90
31837;DHT22;18401;49.344;6.240;2023-01-01T09:41:06;13.80;99.90
31837;DHT22;18401;49.344;6.240;2023-01-01T09:46:08;13.70;99.90
31837;DHT22;18401;49.344;6.240;2023-01-01T09:48:38;13.70;99.90
31837;DHT22;18401;49.344;6.240;2023-01-01T09:51:12;13.70;99.90
31837;DHT22;18401;49.344;6.240;2023-01-01T09:53:58;13.70;99.90
31837;DHT22;18401;49.344;6.240;2023-01-01T09:56:27;13.50;99.90
31837;DHT22;18401;49.344;6.240;2023-01-01T09:58:55;13.50;99.90
31837;DHT22;18401;49.344;6.240;2023-01-01T10:09:49;13.50;99.90
31837;DHT22;18401;49.344;6.240;2023-01-01T10:12:39;13.50;99.90
31837;DHT22;18401;49.344;6.240;2023-01-01T10:15:15;13.40;99.90
31837;DHT22;18401;49.344;6.240;2023-01-01T10:17:48;13.40;99.90
31837;DHT22;18401;49.344;6.240;2023-01-01T10:20:20;13.40;99.90
31837;DHT22;18401;49.344;6.240;2023-01-01T10:22:51;13.40;99.90
31837;DHT22;18401;49.344;6.240;2023-01-01T10:25:20;13.30;99.90
31837;DHT22;18401;49.344;6.240;2023-01-01T10:28:08;13.40;99.90
31837;DHT22;18401;49.344;6.240;2023-01-01T10:30:36;13.40;99.90
31837;DHT22;18401;49.344;6.240;2023-01-01T10:33:04;13.40;99.90
31837;DHT22;18401;49.344;6.240;2023-01-01T10:35:35;13.40;99.90
31837;DHT22;18401;49.344;6.240;2023-01-01T10:38:04;13.40;99.90
31837;DHT22;18401;49.344;6.240;2023-01-01T10:40:30;13.40;99.90
31837;DHT22;18401;49.344;6.240;2023-01-01T10:42:58;13.40;99.90
31837;DHT22;18401;49.344;6.240;2023-01-01T10:45:36;13.40;99.90
31837;DHT22;18401;49.344;6.240;2023-01-01T10:50:44;13.30;99.90
31837;DHT22;18401;49.344;6.240;2023-01-01T10:53:23;13.40;99.90
31837;DHT22;18401;49.344;6.240;2023-01-01T10:56:00;13.40;99.90
31837;DHT22;18401;49.344;6.240;2023-01-01T11:01:22;13.70;99.90
31837;DHT22;18401;49.344;6.240;2023-01-01T11:06:37;13.90;99.90
31837;DHT22;18401;49.344;6.240;2023-01-01T11:09:19;14.00;99.90
31837;DHT22;18401;49.344;6.240;2023-01-01T11:11:47;13.90;99.90
31837;DHT22;18401;49.344;6.240;2023-01-01T11:14:20;13.90;99.90
31837;DHT22;18401;49.344;6.240;2023-01-01T11:16:46;13.80;99.90
31837;DHT22;18401;49.344;6.240;2023-01-01T11:19:31;13.80;99.90
31837;DHT22;18401;49.344;6.240;2023-01-01T11:21:59;13.80;99.90
31837;DHT22;18401;49.344;6.240;2023-01-01T11:24:31;13.70;99.90
31837;DHT22;18401;49.344;6.240;2023-01-01T11:27:20;13.70;99.90
31837;DHT22;18401;49.344;6.240;2023-01-01T11:29:47;13.70;99.90
31837;DHT22;18401;49.344;6.240;2023-01-01T11:32:22;13.70;99.90
31837;DHT22;18401;49.344;6.240;2023-01-01T11:35:00;13.50;99.90
31837;DHT22;18401;49.344;6.240;2023-01-01T11:37:31;13.50;99.90
31837;DHT22;18401;49.344;6.240;2023-01-01T11:39:59;13.50;99.90
31837;DHT22;18401;49.344;6.240;2023-01-01T11:42:31;13.50;99.90
31837;DHT22;18401;49.344;6.240;2023-01-01T11:45:23;13.40;99.90
31837;DHT22;18401;49.344;6.240;2023-01-01T11:47:54;13.40;99.90
31837;DHT22;18401;49.344;6.240;2023-01-01T11:50:32;13.40;99.90
31837;DHT22;18401;49.344;6.240;2023-01-01T11:55:53;13.30;99.90
31837;DHT22;18401;49.344;6.240;2023-01-01T12:04:39;13.30;99.90
31837;DHT22;18401;49.344;6.240;2023-01-01T12:07:23;13.30;99.90
31837;DHT22;18401;49.344;6.240;2023-01-01T12:10:26;13.20;99.90
31837;DHT22;18401;49.344;6.240;2023-01-01T12:13:04;13.20;99.90
31837;DHT22;18401;49.344;6.240;2023-01-01T12:15:40;13.30;99.90
31837;DHT22;18401;49.344;6.240;2023-01-01T12:18:46;13.30;99.90
31837;DHT22;18401;49.344;6.240;2023-01-01T12:21:24;13.30;99.90
31837;DHT22;18401;49.344;6.240;2023-01-01T12:23:51;13.40;99.90
31837;DHT22;18401;49.344;6.240;2023-01-01T12:29:00;13.30;99.90
31837;DHT22;18401;49.344;6.240;2023-01-01T12:31:52;13.30;99.90
31837;DHT22;18401;49.344;6.240;2023-01-01T12:42:16;13.30;99.90
31837;DHT22;18401;49.344;6.240;2023-01-01T12:50:48;13.30;99.90
31837;DHT22;18401;49.344;6.240;2023-01-01T12:53:24;13.20;99.90
31837;DHT22;18401;49.344;6.240;2023-01-01T12:56:07;13.20;99.90
31837;DHT22;18401;49.344;6.240;2023-01-01T13:01:19;13.10;99.90
31837;DHT22;18401;49.344;6.240;2023-01-01T13:06:52;13.10;99.90
31837;DHT22;18401;49.344;6.240;2023-01-01T13:09:26;13.20;99.90
31837;DHT22;18401;49.344;6.240;2023-01-01T13:12:14;13.20;99.90
31837;DHT22;18401;49.344;6.240;2023-01-01T13:14:45;13.20;99.90
31837;DHT22;18401;49.344;6.240;2023-01-01T13:17:24;13.20;99.90
31837;DHT22;18401;49.344;6.240;2023-01-01T13:22:37;13.30;99.90
31837;DHT22;18401;49.344;6.240;2023-01-01T13:33:24;13.50;99.90
31837;DHT22;18401;49.344;6.240;2023-01-01T13:38:53;13.50;99.90
31837;DHT22;18401;49.344;6.240;2023-01-01T13:41:42;13.40;99.90
31837;DHT22;18401;49.344;6.240;2023-01-01T13:52:44;13.30;99.90
31837;DHT22;18401;49.344;6.240;2023-01-01T14:03:43;13.20;99.90
31837;DHT22;18401;49.344;6.240;2023-01-01T14:06:19;13.20;99.90
31837;DHT22;18401;49.344;6.240;2023-01-01T14:09:06;13.10;99.90
31837;DHT22;18401;49.344;6.240;2023-01-01T14:11:32;13.10;99.90
31837;DHT22;18401;49.344;6.240;2023-01-01T14:13:57;13.10;99.90
31837;DHT22;18401;49.344;6.240;2023-01-01T14:16:25;13.10;99.90
31837;DHT22;18401;49.344;6.240;2023-01-01T14:18:55;13.10;99.90
31837;DHT22;18401;49.344;6.240;2023-01-01T14:21:25;13.20;99.90
31837;DHT22;18401;49.344;6.240;2023-01-01T14:24:01;13.20;99.90
31837;DHT22;18401;49.344;6.240;2023-01-01T14:26:29;13.20;99.90
31837;DHT22;18401;49.344;6.240;2023-01-01T14:28:58;13.10;99.90
31837;DHT22;18401;49.344;6.240;2023-01-01T14:31:29;13.10;99.90
31837;DHT22;18401;49.344;6.240;2023-01-01T14:33:56;13.10;99.90
31837;DHT22;18401;49.344;6.240;2023-01-01T14:38:51;13.00;99.90
31837;DHT22;18401;49.344;6.240;2023-01-01T14:41:28;13.10;99.90
31837;DHT22;18401;49.344;6.240;2023-01-01T14:44:20;13.00;99.90
31837;DHT22;18401;49.344;6.240;2023-01-01T14:46:49;13.00;99.90
31837;DHT22;18401;49.344;6.240;2023-01-01T14:49:19;12.90;99.90
31837;DHT22;18401;49.344;6.240;2023-01-01T14:51:52;12.80;99.90
31837;DHT22;18401;49.344;6.240;2023-01-01T14:54:20;12.90;99.90
31837;DHT22;18401;49.344;6.240;2023-01-01T14:56:49;12.90;99.90
31837;DHT22;18401;49.344;6.240;2023-01-01T14:59:25;12.90;99.90
31837;DHT22;18401;49.344;6.240;2023-01-01T15:04:34;12.80;99.90
31837;DHT22;18401;49.344;6.240;2023-01-01T15:07:00;12.80;99.90
31837;DHT22;18401;49.344;6.240;2023-01-01T15:09:27;12.80;99.90
31837;DHT22;18401;49.344;6.240;2023-01-01T15:11:55;12.80;99.90
31837;DHT22;18401;49.344;6.240;2023-01-01T15:14:38;12.70;99.90
31837;DHT22;18401;49.344;6.240;2023-01-01T15:17:06;12.70;99.90
31837;DHT22;18401;49.344;6.240;2023-01-01T15:19:32;12.60;99.90
31837;DHT22;18401;49.344;6.240;2023-01-01T15:22:00;12.60;99.90
31837;DHT22;18401;49.344;6.240;2023-01-01T15:24:27;12.60;99.90
31837;DHT22;18401;49.344;6.240;2023-01-01T15:26:59;12.60;99.90
31837;DHT22;18401;49.344;6.240;2023-01-01T15:31:55;12.50;99.90
31837;DHT22;18401;49.344;6.240;2023-01-01T15:34:24;12.50;99.90
31837;DHT22;18401;49.344;6.240;2023-01-01T15:36:53;12.50;99.90
31837;DHT22;18401;49.344;6.240;2023-01-01T15:39:20;12.40;99.90
31837;DHT22;18401;49.344;6.240;2023-01-01T15:41:48;12.40;99.90
31837;DHT22;18401;49.344;6.240;2023-01-01T15:44:24;12.40;99.90
31837;DHT22;18401;49.344;6.240;2023-01-01T15:46:51;12.40;99.90
31837;DHT22;18401;49.344;6.240;2023-01-01T15:49:27;12.40;99.90
31837;DHT22;18401;49.344;6.240;2023-01-01T15:51:55;12.50;99.90
31837;DHT22;18401;49.344;6.240;2023-01-01T15:54:22;12.50;99.90
31837;DHT22;18401;49.344;6.240;2023-01-01T15:56:48;12.60;99.90
31837;DHT22;18401;49.344;6.240;2023-01-01T16:01:48;12.60;99.90
31837;DHT22;18401;49.344;6.240;2023-01-01T16:04:25;12.60;99.90
31837;DHT22;18401;49.344;6.240;2023-01-01T16:06:53;12.60;99.90
31837;DHT22;18401;49.344;6.240;2023-01-01T16:09:20;12.60;99.90
31837;DHT22;18401;49.344;6.240;2023-01-01T16:11:54;12.60;99.90
31837;DHT22;18401;49.344;6.240;2023-01-01T16:14:21;12.60;99.90
31837;DHT22;18401;49.344;6.240;2023-01-01T16:16:56;12.50;99.90
31837;DHT22;18401;49.344;6.240;2023-01-01T16:19:25;12.50;99.90
31837;DHT22;18401;49.344;6.240;2023-01-01T16:21:51;12.60;99.90
31837;DHT22;18401;49.344;6.240;2023-01-01T16:24:18;12.60;99.90
31837;DHT22;18401;49.344;6.240;2023-01-01T16:26:44;12.60;99.90
31837;DHT22;18401;49.344;6.240;2023-01-01T16:29:11;12.60;99.90
31837;DHT22;18401;49.344;6.240;2023-01-01T16:31:38;12.60;99.90
31837;DHT22;18401;49.344;6.240;2023-01-01T16:34:05;12.60;99.90
31837;DHT22;18401;49.344;6.240;2023-01-01T16:36:32;12.60;99.90
31837;DHT22;18401;49.344;6.240;2023-01-01T16:38:58;12.60;99.90
31837;DHT22;18401;49.344;6.240;2023-01-01T16:41:26;12.60;99.90
31837;DHT22;18401;49.344;6.240;2023-01-01T16:43:53;12.50;99.90
31837;DHT22;18401;49.344;6.240;2023-01-01T16:46:19;12.50;99.90
31837;DHT22;18401;49.344;6.240;2023-01-01T16:48:44;12.50;99.90
31837;DHT22;18401;49.344;6.240;2023-01-01T16:51:22;12.40;99.90
31837;DHT22;18401;49.344;6.240;2023-01-01T16:53:48;12.30;99.90
31837;DHT22;18401;49.344;6.240;2023-01-01T16:56:15;12.40;99.90
31837;DHT22;18401;49.344;6.240;2023-01-01T16:58:41;12.40;99.90
31837;DHT22;18401;49.344;6.240;2023-01-01T17:01:07;12.40;99.90
31837;DHT22;18401;49.344;6.240;2023-01-01T17:03:33;12.50;99.90
31837;DHT22;18401;49.344;6.240;2023-01-01T17:06:06;12.50;99.90
31837;DHT22;18401;49.344;6.240;2023-01-01T17:08:33;12.50;99.90
31837;DHT22;18401;49.344;6.240;2023-01-01T17:11:07;12.40;99.90
31837;DHT22;18401;49.344;6.240;2023-01-01T17:13:34;12.40;99.90
31837;DHT22;18401;49.344;6.240;2023-01-01T17:16:00;12.40;99.90
31837;DHT22;18401;49.344;6.240;2023-01-01T17:18:26;12.50;99.90
31837;DHT22;18401;49.344;6.240;2023-01-01T17:20:52;12.50;99.90
31837;DHT22;18401;49.344;6.240;2023-01-01T17:23:18;12.60;99.90
31837;DHT22;18401;49.344;6.240;2023-01-01T17:25:43;12.60;99.90
31837;DHT22;18401;49.344;6.240;2023-01-01T17:28:09;12.60;99.90
31837;DHT22;18401;49.344;6.240;2023-01-01T17:30:35;12.50;99.90
31837;DHT22;18401;49.344;6.240;2023-01-01T17:33:00;12.60;99.90
31837;DHT22;18401;49.344;6.240;2023-01-01T17:35:26;12.60;99.90
31837;DHT22;18401;49.344;6.240;2023-01-01T17:37:51;12.60;99.90
31837;DHT22;18401;49.344;6.240;2023-01-01T17:40:19;12.60;99.90
31837;DHT22;18401;49.344;6.240;2023-01-01T17:42:44;12.50;99.90
31837;DHT22;18401;49.344;6.240;2023-01-01T17:45:10;12.50;99.90
31837;DHT22;18401;49.344;6.240;2023-01-01T17:47:38;12.50;99.90
31837;DHT22;18401;49.344;6.240;2023-01-01T17:50:04;12.50;99.90
31837;DHT22;18401;49.344;6.240;2023-01-01T17:52:30;12.50;99.90